sensor_id;sensor_type;location;lat;lon;timestamp;P1;durP1;ratioP1;P2;durP2;ratioP2
25023;SDS011;13033;50.936;5.334;2024-01-25T00:00:57;50.92;;;8.18;;
25023;SDS011;13033;50.936;5.334;2024-01-25T00:03:22;55.13;;;7.55;;
25023;SDS011;13033;50.936;5.334;2024-01-25T00:05:48;44.97;;;8.88;;
25023;SDS011;13033;50.936;5.334;2024-01-25T00:08:14;55.25;;;7.78;;
25023;SDS011;13033;50.936;5.334;2024-01-25T00:10:40;44.28;;;7.50;;
25023;SDS011;13033;50.936;5.334;2024-01-25T00:13:06;50.53;;;7.63;;
25023;SDS011;13033;50.936;5.334;2024-01-25T00:15:32;58.53;;;7.28;;
25023;SDS011;13033;50.936;5.334;2024-01-25T00:17:57;48.00;;;8.30;;
25023;SDS011;13033;50.936;5.334;2024-01-25T00:20:23;53.67;;;8.18;;
25023;SDS011;13033;50.936;5.334;2024-01-25T00:22:49;58.13;;;10.70;;
25023;SDS011;13033;50.936;5.334;2024-01-25T00:25:14;51.75;;;8.05;;
25023;SDS011;13033;50.936;5.334;2024-01-25T00:27:40;55.65;;;7.88;;
25023;SDS011;13033;50.936;5.334;2024-01-25T00:30:06;45.83;;;8.23;;
25023;SDS011;13033;50.936;5.334;2024-01-25T00:32:32;51.80;;;7.68;;
25023;SDS011;13033;50.936;5.334;2024-01-25T00:34:58;60.47;;;8.73;;
25023;SDS011;13033;50.936;5.334;2024-01-25T00:37:24;51.75;;;8.43;;
25023;SDS011;13033;50.936;5.334;2024-01-25T00:39:50;50.72;;;8.02;;
25023;SDS011;13033;50.936;5.334;2024-01-25T00:42:16;52.85;;;9.60;;
25023;SDS011;13033;50.936;5.334;2024-01-25T00:44:46;50.75;;;8.15;;
25023;SDS011;13033;50.936;5.334;2024-01-25T00:47:12;55.45;;;9.35;;
25023;SDS011;13033;50.936;5.334;2024-01-25T00:49:38;46.75;;;8.27;;
25023;SDS011;13033;50.936;5.334;2024-01-25T00:52:04;47.45;;;8.10;;
25023;SDS011;13033;50.936;5.334;2024-01-25T00:54:30;48.47;;;7.18;;
25023;SDS011;13033;50.936;5.334;2024-01-25T00:56:56;57.53;;;8.73;;
25023;SDS011;13033;50.936;5.334;2024-01-25T00:59:22;53.00;;;8.27;;
25023;SDS011;13033;50.936;5.334;2024-01-25T01:01:48;55.80;;;8.75;;
25023;SDS011;13033;50.936;5.334;2024-01-25T01:04:17;42.88;;;7.57;;
25023;SDS011;13033;50.936;5.334;2024-01-25T01:06:43;58.08;;;8.32;;
25023;SDS011;13033;50.936;5.334;2024-01-25T01:09:09;42.90;;;8.60;;
25023;SDS011;13033;50.936;5.334;2024-01-25T01:11:36;60.00;;;7.93;;
25023;SDS011;13033;50.936;5.334;2024-01-25T01:14:02;45.67;;;7.68;;
25023;SDS011;13033;50.936;5.334;2024-01-25T01:16:28;55.63;;;8.13;;
25023;SDS011;13033;50.936;5.334;2024-01-25T01:18:57;57.78;;;8.02;;
25023;SDS011;13033;50.936;5.334;2024-01-25T01:21:30;50.72;;;9.05;;
25023;SDS011;13033;50.936;5.334;2024-01-25T01:23:56;48.42;;;8.52;;
25023;SDS011;13033;50.936;5.334;2024-01-25T01:26:23;59.90;;;8.50;;
25023;SDS011;13033;50.936;5.334;2024-01-25T01:28:48;53.60;;;8.82;;
25023;SDS011;13033;50.936;5.334;2024-01-25T01:31:14;46.40;;;8.27;;
25023;SDS011;13033;50.936;5.334;2024-01-25T01:33:41;50.10;;;8.23;;
25023;SDS011;13033;50.936;5.334;2024-01-25T01:36:07;51.25;;;7.40;;
25023;SDS011;13033;50.936;5.334;2024-01-25T01:38:33;55.22;;;7.88;;
25023;SDS011;13033;50.936;5.334;2024-01-25T01:41:00;43.85;;;6.80;;
25023;SDS011;13033;50.936;5.334;2024-01-25T01:43:25;49.10;;;7.82;;
25023;SDS011;13033;50.936;5.334;2024-01-25T01:45:51;54.70;;;7.60;;
25023;SDS011;13033;50.936;5.334;2024-01-25T01:48:18;58.30;;;8.57;;
25023;SDS011;13033;50.936;5.334;2024-01-25T01:50:44;47.35;;;8.27;;
25023;SDS011;13033;50.936;5.334;2024-01-25T01:53:10;51.30;;;7.88;;
25023;SDS011;13033;50.936;5.334;2024-01-25T01:55:37;55.20;;;8.52;;
25023;SDS011;13033;50.936;5.334;2024-01-25T01:58:05;62.47;;;8.00;;
25023;SDS011;13033;50.936;5.334;2024-01-25T02:00:31;55.25;;;8.35;;
25023;SDS011;13033;50.936;5.334;2024-01-25T02:02:58;59.28;;;7.95;;
25023;SDS011;13033;50.936;5.334;2024-01-25T02:05:24;43.30;;;7.45;;
25023;SDS011;13033;50.936;5.334;2024-01-25T02:07:50;48.28;;;8.05;;
25023;SDS011;13033;50.936;5.334;2024-01-25T02:10:17;59.83;;;8.48;;
25023;SDS011;13033;50.936;5.334;2024-01-25T02:12:43;54.50;;;7.63;;
25023;SDS011;13033;50.936;5.334;2024-01-25T02:15:09;53.60;;;8.30;;
25023;SDS011;13033;50.936;5.334;2024-01-25T02:17:36;56.85;;;8.57;;
25023;SDS011;13033;50.936;5.334;2024-01-25T02:20:02;51.40;;;8.50;;
25023;SDS011;13033;50.936;5.334;2024-01-25T02:22:28;59.72;;;7.82;;
25023;SDS011;13033;50.936;5.334;2024-01-25T02:24:54;56.40;;;8.10;;
25023;SDS011;13033;50.936;5.334;2024-01-25T02:27:20;49.05;;;7.93;;
25023;SDS011;13033;50.936;5.334;2024-01-25T02:29:46;50.08;;;8.50;;
25023;SDS011;13033;50.936;5.334;2024-01-25T02:32:12;47.28;;;7.13;;
25023;SDS011;13033;50.936;5.334;2024-01-25T02:34:38;56.60;;;8.95;;
25023;SDS011;13033;50.936;5.334;2024-01-25T02:37:03;53.22;;;7.32;;
25023;SDS011;13033;50.936;5.334;2024-01-25T02:39:30;55.75;;;7.30;;
25023;SDS011;13033;50.936;5.334;2024-01-25T02:41:56;59.13;;;8.07;;
25023;SDS011;13033;50.936;5.334;2024-01-25T02:44:22;59.85;;;8.48;;
25023;SDS011;13033;50.936;5.334;2024-01-25T02:46:47;61.90;;;8.65;;
25023;SDS011;13033;50.936;5.334;2024-01-25T02:49:13;54.70;;;7.82;;
25023;SDS011;13033;50.936;5.334;2024-01-25T02:51:39;61.33;;;8.02;;
25023;SDS011;13033;50.936;5.334;2024-01-25T02:54:04;57.03;;;7.80;;
25023;SDS011;13033;50.936;5.334;2024-01-25T02:56:30;59.80;;;7.30;;
25023;SDS011;13033;50.936;5.334;2024-01-25T02:58:59;51.38;;;9.10;;
25023;SDS011;13033;50.936;5.334;2024-01-25T03:01:28;53.13;;;8.48;;
25023;SDS011;13033;50.936;5.334;2024-01-25T03:04:01;52.42;;;7.75;;
25023;SDS011;13033;50.936;5.334;2024-01-25T03:06:27;62.00;;;7.72;;
25023;SDS011;13033;50.936;5.334;2024-01-25T03:08:54;49.03;;;7.93;;
25023;SDS011;13033;50.936;5.334;2024-01-25T03:11:19;57.67;;;7.38;;
25023;SDS011;13033;50.936;5.334;2024-01-25T03:13:45;57.78;;;8.93;;
25023;SDS011;13033;50.936;5.334;2024-01-25T03:16:11;54.75;;;7.80;;
25023;SDS011;13033;50.936;5.334;2024-01-25T03:18:36;62.05;;;8.27;;
25023;SDS011;13033;50.936;5.334;2024-01-25T03:21:02;64.18;;;8.63;;
25023;SDS011;13033;50.936;5.334;2024-01-25T03:23:28;53.33;;;8.85;;
25023;SDS011;13033;50.936;5.334;2024-01-25T03:25:53;71.28;;;7.82;;
25023;SDS011;13033;50.936;5.334;2024-01-25T03:28:19;57.17;;;7.47;;
25023;SDS011;13033;50.936;5.334;2024-01-25T03:30:45;60.30;;;8.50;;
25023;SDS011;13033;50.936;5.334;2024-01-25T03:33:12;73.93;;;9.02;;
25023;SDS011;13033;50.936;5.334;2024-01-25T03:35:37;52.05;;;7.85;;
25023;SDS011;13033;50.936;5.334;2024-01-25T03:38:03;63.00;;;7.82;;
25023;SDS011;13033;50.936;5.334;2024-01-25T03:40:29;61.25;;;8.18;;
25023;SDS011;13033;50.936;5.334;2024-01-25T03:42:55;67.05;;;8.43;;
25023;SDS011;13033;50.936;5.334;2024-01-25T03:45:21;61.65;;;8.38;;
25023;SDS011;13033;50.936;5.334;2024-01-25T03:47:46;62.75;;;7.93;;
25023;SDS011;13033;50.936;5.334;2024-01-25T03:50:12;55.17;;;8.10;;
25023;SDS011;13033;50.936;5.334;2024-01-25T03:52:38;57.08;;;8.55;;
25023;SDS011;13033;50.936;5.334;2024-01-25T03:55:04;54.35;;;8.70;;
25023;SDS011;13033;50.936;5.334;2024-01-25T03:57:30;59.10;;;8.70;;
25023;SDS011;13033;50.936;5.334;2024-01-25T03:59:56;62.72;;;8.27;;
25023;SDS011;13033;50.936;5.334;2024-01-25T04:02:21;64.88;;;9.15;;
25023;SDS011;13033;50.936;5.334;2024-01-25T04:04:47;57.67;;;7.95;;
25023;SDS011;13033;50.936;5.334;2024-01-25T04:07:13;53.95;;;7.95;;
25023;SDS011;13033;50.936;5.334;2024-01-25T04:09:39;56.92;;;8.15;;
25023;SDS011;13033;50.936;5.334;2024-01-25T04:12:05;53.22;;;8.70;;
25023;SDS011;13033;50.936;5.334;2024-01-25T04:14:31;55.30;;;7.28;;
25023;SDS011;13033;50.936;5.334;2024-01-25T04:16:56;57.45;;;8.27;;
25023;SDS011;13033;50.936;5.334;2024-01-25T04:19:22;63.72;;;8.90;;
25023;SDS011;13033;50.936;5.334;2024-01-25T04:21:49;51.15;;;7.63;;
25023;SDS011;13033;50.936;5.334;2024-01-25T04:24:15;49.92;;;8.93;;
25023;SDS011;13033;50.936;5.334;2024-01-25T04:26:40;60.90;;;8.57;;
25023;SDS011;13033;50.936;5.334;2024-01-25T04:29:06;61.95;;;9.00;;
25023;SDS011;13033;50.936;5.334;2024-01-25T04:31:32;62.85;;;9.02;;
25023;SDS011;13033;50.936;5.334;2024-01-25T04:33:57;61.92;;;8.15;;
25023;SDS011;13033;50.936;5.334;2024-01-25T04:36:23;50.13;;;7.95;;
25023;SDS011;13033;50.936;5.334;2024-01-25T04:38:49;65.75;;;8.02;;
25023;SDS011;13033;50.936;5.334;2024-01-25T04:41:14;60.60;;;9.38;;
25023;SDS011;13033;50.936;5.334;2024-01-25T04:43:40;51.63;;;7.60;;
25023;SDS011;13033;50.936;5.334;2024-01-25T04:46:06;54.63;;;8.00;;
25023;SDS011;13033;50.936;5.334;2024-01-25T04:48:32;57.35;;;8.90;;
25023;SDS011;13033;50.936;5.334;2024-01-25T04:50:59;54.25;;;7.78;;
25023;SDS011;13033;50.936;5.334;2024-01-25T04:53:25;62.38;;;7.75;;
25023;SDS011;13033;50.936;5.334;2024-01-25T04:55:53;56.75;;;7.75;;
25023;SDS011;13033;50.936;5.334;2024-01-25T04:58:19;56.33;;;8.27;;
25023;SDS011;13033;50.936;5.334;2024-01-25T05:00:45;49.30;;;7.22;;
25023;SDS011;13033;50.936;5.334;2024-01-25T05:03:11;62.95;;;8.30;;
25023;SDS011;13033;50.936;5.334;2024-01-25T05:05:36;69.28;;;9.38;;
25023;SDS011;13033;50.936;5.334;2024-01-25T05:08:02;53.20;;;7.68;;
25023;SDS011;13033;50.936;5.334;2024-01-25T05:10:28;51.50;;;7.93;;
25023;SDS011;13033;50.936;5.334;2024-01-25T05:13:03;53.35;;;7.88;;
25023;SDS011;13033;50.936;5.334;2024-01-25T05:15:29;65.88;;;8.52;;
25023;SDS011;13033;50.936;5.334;2024-01-25T05:17:54;57.03;;;7.50;;
25023;SDS011;13033;50.936;5.334;2024-01-25T05:20:20;55.88;;;7.55;;
25023;SDS011;13033;50.936;5.334;2024-01-25T05:22:46;56.90;;;7.55;;
25023;SDS011;13033;50.936;5.334;2024-01-25T05:25:11;59.47;;;8.32;;
25023;SDS011;13033;50.936;5.334;2024-01-25T05:27:37;61.75;;;7.90;;
25023;SDS011;13033;50.936;5.334;2024-01-25T05:30:03;60.25;;;8.38;;
25023;SDS011;13033;50.936;5.334;2024-01-25T05:32:30;57.80;;;9.60;;
25023;SDS011;13033;50.936;5.334;2024-01-25T05:34:55;57.53;;;7.95;;
25023;SDS011;13033;50.936;5.334;2024-01-25T05:37:21;61.53;;;7.90;;
25023;SDS011;13033;50.936;5.334;2024-01-25T05:39:47;65.10;;;8.88;;
25023;SDS011;13033;50.936;5.334;2024-01-25T05:42:13;53.15;;;8.43;;
25023;SDS011;13033;50.936;5.334;2024-01-25T05:44:38;56.40;;;8.20;;
25023;SDS011;13033;50.936;5.334;2024-01-25T05:47:04;59.42;;;8.57;;
25023;SDS011;13033;50.936;5.334;2024-01-25T05:49:29;65.13;;;8.68;;
25023;SDS011;13033;50.936;5.334;2024-01-25T05:51:55;67.60;;;8.93;;
25023;SDS011;13033;50.936;5.334;2024-01-25T05:54:21;60.75;;;8.25;;
25023;SDS011;13033;50.936;5.334;2024-01-25T05:56:46;56.65;;;8.35;;
25023;SDS011;13033;50.936;5.334;2024-01-25T05:59:12;82.55;;;10.00;;
25023;SDS011;13033;50.936;5.334;2024-01-25T06:01:38;60.15;;;8.45;;
25023;SDS011;13033;50.936;5.334;2024-01-25T06:04:04;67.32;;;9.23;;
25023;SDS011;13033;50.936;5.334;2024-01-25T06:06:29;59.80;;;7.93;;
25023;SDS011;13033;50.936;5.334;2024-01-25T06:08:55;52.97;;;7.85;;
25023;SDS011;13033;50.936;5.334;2024-01-25T06:11:21;62.20;;;8.93;;
25023;SDS011;13033;50.936;5.334;2024-01-25T06:13:46;53.15;;;7.85;;
25023;SDS011;13033;50.936;5.334;2024-01-25T06:16:12;57.70;;;9.18;;
25023;SDS011;13033;50.936;5.334;2024-01-25T06:18:38;66.57;;;8.07;;
25023;SDS011;13033;50.936;5.334;2024-01-25T06:21:03;74.45;;;9.55;;
25023;SDS011;13033;50.936;5.334;2024-01-25T06:23:29;62.03;;;8.90;;
25023;SDS011;13033;50.936;5.334;2024-01-25T06:25:55;51.63;;;7.95;;
25023;SDS011;13033;50.936;5.334;2024-01-25T06:28:20;68.80;;;9.07;;
25023;SDS011;13033;50.936;5.334;2024-01-25T06:30:46;68.95;;;9.73;;
25023;SDS011;13033;50.936;5.334;2024-01-25T06:33:13;54.55;;;8.50;;
25023;SDS011;13033;50.936;5.334;2024-01-25T06:35:39;57.65;;;8.70;;
25023;SDS011;13033;50.936;5.334;2024-01-25T06:38:05;61.38;;;7.95;;
25023;SDS011;13033;50.936;5.334;2024-01-25T06:40:30;76.88;;;8.77;;
25023;SDS011;13033;50.936;5.334;2024-01-25T06:42:56;51.58;;;8.45;;
25023;SDS011;13033;50.936;5.334;2024-01-25T06:45:22;67.38;;;8.60;;
25023;SDS011;13033;50.936;5.334;2024-01-25T06:47:47;56.60;;;8.60;;
25023;SDS011;13033;50.936;5.334;2024-01-25T06:50:13;59.20;;;9.40;;
25023;SDS011;13033;50.936;5.334;2024-01-25T06:52:39;70.95;;;8.38;;
25023;SDS011;13033;50.936;5.334;2024-01-25T06:55:05;70.75;;;9.05;;
25023;SDS011;13033;50.936;5.334;2024-01-25T06:57:31;60.38;;;9.05;;
25023;SDS011;13033;50.936;5.334;2024-01-25T06:59:56;62.17;;;9.02;;
25023;SDS011;13033;50.936;5.334;2024-01-25T07:02:22;66.57;;;9.00;;
25023;SDS011;13033;50.936;5.334;2024-01-25T07:04:48;58.58;;;9.10;;
25023;SDS011;13033;50.936;5.334;2024-01-25T07:07:13;62.35;;;8.23;;
25023;SDS011;13033;50.936;5.334;2024-01-25T07:09:39;56.10;;;8.57;;
25023;SDS011;13033;50.936;5.334;2024-01-25T07:12:05;87.70;;;11.57;;
25023;SDS011;13033;50.936;5.334;2024-01-25T07:14:31;53.15;;;9.00;;
25023;SDS011;13033;50.936;5.334;2024-01-25T07:16:57;74.95;;;9.20;;
25023;SDS011;13033;50.936;5.334;2024-01-25T07:19:23;70.95;;;8.80;;
25023;SDS011;13033;50.936;5.334;2024-01-25T07:21:48;64.32;;;9.07;;
25023;SDS011;13033;50.936;5.334;2024-01-25T07:24:14;55.90;;;8.93;;
25023;SDS011;13033;50.936;5.334;2024-01-25T07:26:40;57.75;;;8.80;;
25023;SDS011;13033;50.936;5.334;2024-01-25T07:29:07;54.45;;;9.13;;
25023;SDS011;13033;50.936;5.334;2024-01-25T07:31:32;61.72;;;8.65;;
25023;SDS011;13033;50.936;5.334;2024-01-25T07:33:58;63.03;;;9.68;;
25023;SDS011;13033;50.936;5.334;2024-01-25T07:36:24;63.75;;;9.98;;
25023;SDS011;13033;50.936;5.334;2024-01-25T07:38:50;64.63;;;9.98;;
25023;SDS011;13033;50.936;5.334;2024-01-25T07:41:16;59.83;;;9.32;;
25023;SDS011;13033;50.936;5.334;2024-01-25T07:43:42;60.72;;;9.05;;
25023;SDS011;13033;50.936;5.334;2024-01-25T07:46:09;58.97;;;9.13;;
25023;SDS011;13033;50.936;5.334;2024-01-25T07:48:35;62.38;;;9.23;;
25023;SDS011;13033;50.936;5.334;2024-01-25T07:51:01;63.55;;;9.63;;
25023;SDS011;13033;50.936;5.334;2024-01-25T07:53:27;73.15;;;11.07;;
25023;SDS011;13033;50.936;5.334;2024-01-25T07:55:53;62.70;;;9.63;;
25023;SDS011;13033;50.936;5.334;2024-01-25T07:58:19;69.70;;;9.77;;
25023;SDS011;13033;50.936;5.334;2024-01-25T08:03:17;70.03;;;9.35;;
25023;SDS011;13033;50.936;5.334;2024-01-25T08:05:43;69.70;;;10.02;;
25023;SDS011;13033;50.936;5.334;2024-01-25T08:08:11;65.85;;;8.80;;
25023;SDS011;13033;50.936;5.334;2024-01-25T08:10:38;54.78;;;9.43;;
25023;SDS011;13033;50.936;5.334;2024-01-25T08:13:03;56.60;;;8.50;;
25023;SDS011;13033;50.936;5.334;2024-01-25T08:15:29;60.85;;;8.63;;
25023;SDS011;13033;50.936;5.334;2024-01-25T08:17:55;58.50;;;9.88;;
25023;SDS011;13033;50.936;5.334;2024-01-25T08:20:21;59.58;;;10.25;;
25023;SDS011;13033;50.936;5.334;2024-01-25T08:22:46;55.35;;;9.60;;
25023;SDS011;13033;50.936;5.334;2024-01-25T08:25:12;65.88;;;10.05;;
25023;SDS011;13033;50.936;5.334;2024-01-25T08:27:39;53.35;;;10.45;;
25023;SDS011;13033;50.936;5.334;2024-01-25T08:30:05;53.47;;;11.50;;
25023;SDS011;13033;50.936;5.334;2024-01-25T08:32:31;68.13;;;11.63;;
25023;SDS011;13033;50.936;5.334;2024-01-25T08:34:57;66.78;;;11.13;;
25023;SDS011;13033;50.936;5.334;2024-01-25T08:37:22;65.65;;;12.30;;
25023;SDS011;13033;50.936;5.334;2024-01-25T08:39:48;72.40;;;11.20;;
25023;SDS011;13033;50.936;5.334;2024-01-25T08:42:16;58.33;;;11.50;;
25023;SDS011;13033;50.936;5.334;2024-01-25T08:44:42;55.22;;;10.60;;
25023;SDS011;13033;50.936;5.334;2024-01-25T08:47:14;52.63;;;12.73;;
25023;SDS011;13033;50.936;5.334;2024-01-25T08:49:40;66.68;;;14.00;;
25023;SDS011;13033;50.936;5.334;2024-01-25T08:52:07;46.85;;;13.20;;
25023;SDS011;13033;50.936;5.334;2024-01-25T08:54:34;59.35;;;14.77;;
25023;SDS011;13033;50.936;5.334;2024-01-25T08:57:03;57.90;;;15.63;;
25023;SDS011;13033;50.936;5.334;2024-01-25T08:59:29;70.68;;;17.52;;
25023;SDS011;13033;50.936;5.334;2024-01-25T09:01:57;77.50;;;16.45;;
25023;SDS011;13033;50.936;5.334;2024-01-25T09:04:23;66.88;;;16.50;;
25023;SDS011;13033;50.936;5.334;2024-01-25T09:06:49;65.82;;;15.15;;
25023;SDS011;13033;50.936;5.334;2024-01-25T09:09:15;61.60;;;15.75;;
25023;SDS011;13033;50.936;5.334;2024-01-25T09:11:40;68.95;;;16.80;;
25023;SDS011;13033;50.936;5.334;2024-01-25T09:14:06;55.53;;;16.50;;
25023;SDS011;13033;50.936;5.334;2024-01-25T09:16:32;59.70;;;15.90;;
25023;SDS011;13033;50.936;5.334;2024-01-25T09:18:57;61.72;;;16.42;;
25023;SDS011;13033;50.936;5.334;2024-01-25T09:21:23;53.63;;;15.75;;
25023;SDS011;13033;50.936;5.334;2024-01-25T09:23:49;58.78;;;16.58;;
25023;SDS011;13033;50.936;5.334;2024-01-25T09:26:15;51.80;;;16.08;;
25023;SDS011;13033;50.936;5.334;2024-01-25T09:28:41;50.25;;;15.95;;
25023;SDS011;13033;50.936;5.334;2024-01-25T09:31:07;56.13;;;16.83;;
25023;SDS011;13033;50.936;5.334;2024-01-25T09:33:33;53.15;;;16.92;;
25023;SDS011;13033;50.936;5.334;2024-01-25T09:35:59;58.72;;;15.60;;
25023;SDS011;13033;50.936;5.334;2024-01-25T09:38:25;60.42;;;17.83;;
25023;SDS011;13033;50.936;5.334;2024-01-25T09:40:50;57.20;;;17.50;;
25023;SDS011;13033;50.936;5.334;2024-01-25T09:43:17;54.45;;;18.33;;
25023;SDS011;13033;50.936;5.334;2024-01-25T09:45:45;58.17;;;18.05;;
25023;SDS011;13033;50.936;5.334;2024-01-25T09:48:12;55.97;;;18.20;;
25023;SDS011;13033;50.936;5.334;2024-01-25T09:50:38;56.50;;;18.17;;
25023;SDS011;13033;50.936;5.334;2024-01-25T09:53:04;59.10;;;19.00;;
25023;SDS011;13033;50.936;5.334;2024-01-25T09:55:32;65.50;;;19.70;;
25023;SDS011;13033;50.936;5.334;2024-01-25T09:58:04;67.65;;;18.98;;
25023;SDS011;13033;50.936;5.334;2024-01-25T10:00:33;83.43;;;21.15;;
25023;SDS011;13033;50.936;5.334;2024-01-25T10:02:59;68.97;;;20.85;;
25023;SDS011;13033;50.936;5.334;2024-01-25T10:05:26;65.07;;;20.17;;
25023;SDS011;13033;50.936;5.334;2024-01-25T10:07:52;76.45;;;20.83;;
25023;SDS011;13033;50.936;5.334;2024-01-25T10:10:18;69.85;;;21.83;;
25023;SDS011;13033;50.936;5.334;2024-01-25T10:12:45;58.83;;;20.30;;
25023;SDS011;13033;50.936;5.334;2024-01-25T10:15:11;61.95;;;18.92;;
25023;SDS011;13033;50.936;5.334;2024-01-25T10:17:36;65.65;;;21.90;;
25023;SDS011;13033;50.936;5.334;2024-01-25T10:20:06;71.18;;;21.20;;
25023;SDS011;13033;50.936;5.334;2024-01-25T10:22:35;64.78;;;20.20;;
25023;SDS011;13033;50.936;5.334;2024-01-25T10:25:02;67.75;;;19.38;;
25023;SDS011;13033;50.936;5.334;2024-01-25T10:27:28;70.22;;;21.40;;
25023;SDS011;13033;50.936;5.334;2024-01-25T10:29:55;65.40;;;20.73;;
25023;SDS011;13033;50.936;5.334;2024-01-25T10:32:22;64.03;;;19.00;;
25023;SDS011;13033;50.936;5.334;2024-01-25T10:34:48;59.08;;;18.58;;
25023;SDS011;13033;50.936;5.334;2024-01-25T10:37:16;62.35;;;19.27;;
25023;SDS011;13033;50.936;5.334;2024-01-25T10:39:42;58.13;;;19.50;;
25023;SDS011;13033;50.936;5.334;2024-01-25T10:42:09;58.45;;;19.08;;
25023;SDS011;13033;50.936;5.334;2024-01-25T10:44:35;54.92;;;18.27;;
25023;SDS011;13033;50.936;5.334;2024-01-25T10:47:01;55.15;;;17.48;;
25023;SDS011;13033;50.936;5.334;2024-01-25T10:49:27;51.30;;;16.88;;
25023;SDS011;13033;50.936;5.334;2024-01-25T10:51:54;63.72;;;19.00;;
25023;SDS011;13033;50.936;5.334;2024-01-25T10:54:20;58.53;;;17.35;;
25023;SDS011;13033;50.936;5.334;2024-01-25T10:56:46;57.55;;;17.88;;
25023;SDS011;13033;50.936;5.334;2024-01-25T10:59:12;54.63;;;17.38;;
25023;SDS011;13033;50.936;5.334;2024-01-25T11:01:44;55.08;;;16.77;;
25023;SDS011;13033;50.936;5.334;2024-01-25T11:04:16;57.20;;;18.02;;
25023;SDS011;13033;50.936;5.334;2024-01-25T11:06:47;57.30;;;17.48;;
25023;SDS011;13033;50.936;5.334;2024-01-25T11:09:19;56.03;;;16.80;;
25023;SDS011;13033;50.936;5.334;2024-01-25T11:11:49;52.83;;;17.65;;
25023;SDS011;13033;50.936;5.334;2024-01-25T11:14:15;57.97;;;17.63;;
25023;SDS011;13033;50.936;5.334;2024-01-25T11:16:44;50.25;;;15.90;;
25023;SDS011;13033;50.936;5.334;2024-01-25T11:19:32;58.85;;;17.83;;
25023;SDS011;13033;50.936;5.334;2024-01-25T11:21:58;55.90;;;15.18;;
25023;SDS011;13033;50.936;5.334;2024-01-25T11:24:28;52.67;;;15.60;;
25023;SDS011;13033;50.936;5.334;2024-01-25T11:26:55;53.03;;;15.27;;
25023;SDS011;13033;50.936;5.334;2024-01-25T11:29:21;48.50;;;15.40;;
25023;SDS011;13033;50.936;5.334;2024-01-25T11:31:49;53.70;;;17.02;;
25023;SDS011;13033;50.936;5.334;2024-01-25T11:34:17;58.22;;;17.02;;
25023;SDS011;13033;50.936;5.334;2024-01-25T11:36:43;68.28;;;16.52;;
25023;SDS011;13033;50.936;5.334;2024-01-25T11:39:09;52.45;;;14.40;;
25023;SDS011;13033;50.936;5.334;2024-01-25T11:41:41;51.88;;;14.73;;
25023;SDS011;13033;50.936;5.334;2024-01-25T11:44:09;48.28;;;14.02;;
25023;SDS011;13033;50.936;5.334;2024-01-25T11:46:36;54.10;;;15.63;;
25023;SDS011;13033;50.936;5.334;2024-01-25T11:49:02;57.33;;;14.93;;
25023;SDS011;13033;50.936;5.334;2024-01-25T11:51:28;48.33;;;14.30;;
25023;SDS011;13033;50.936;5.334;2024-01-25T11:53:54;49.38;;;13.85;;
25023;SDS011;13033;50.936;5.334;2024-01-25T11:56:20;48.50;;;14.35;;
25023;SDS011;13033;50.936;5.334;2024-01-25T11:58:58;56.10;;;14.10;;
25023;SDS011;13033;50.936;5.334;2024-01-25T12:01:25;56.47;;;13.88;;
25023;SDS011;13033;50.936;5.334;2024-01-25T12:03:51;55.00;;;14.82;;
25023;SDS011;13033;50.936;5.334;2024-01-25T12:06:17;51.55;;;14.15;;
25023;SDS011;13033;50.936;5.334;2024-01-25T12:08:43;50.63;;;12.57;;
25023;SDS011;13033;50.936;5.334;2024-01-25T12:11:10;54.50;;;12.52;;
25023;SDS011;13033;50.936;5.334;2024-01-25T12:13:43;45.95;;;12.35;;
25023;SDS011;13033;50.936;5.334;2024-01-25T12:16:10;41.55;;;10.98;;
25023;SDS011;13033;50.936;5.334;2024-01-25T12:18:37;48.55;;;11.68;;
25023;SDS011;13033;50.936;5.334;2024-01-25T12:21:05;46.95;;;11.95;;
25023;SDS011;13033;50.936;5.334;2024-01-25T12:23:38;50.97;;;11.50;;
25023;SDS011;13033;50.936;5.334;2024-01-25T12:26:05;45.10;;;9.13;;
25023;SDS011;13033;50.936;5.334;2024-01-25T12:28:32;44.95;;;10.70;;
25023;SDS011;13033;50.936;5.334;2024-01-25T12:30:59;39.17;;;10.10;;
25023;SDS011;13033;50.936;5.334;2024-01-25T12:33:26;39.55;;;10.38;;
25023;SDS011;13033;50.936;5.334;2024-01-25T12:35:52;46.58;;;10.88;;
25023;SDS011;13033;50.936;5.334;2024-01-25T12:38:21;44.67;;;10.15;;
25023;SDS011;13033;50.936;5.334;2024-01-25T12:40:48;33.33;;;8.75;;
25023;SDS011;13033;50.936;5.334;2024-01-25T12:43:14;40.15;;;8.90;;
25023;SDS011;13033;50.936;5.334;2024-01-25T12:45:41;34.50;;;8.88;;
25023;SDS011;13033;50.936;5.334;2024-01-25T12:48:08;40.92;;;9.07;;
25023;SDS011;13033;50.936;5.334;2024-01-25T12:50:34;42.90;;;8.75;;
25023;SDS011;13033;50.936;5.334;2024-01-25T12:53:01;39.83;;;8.52;;
25023;SDS011;13033;50.936;5.334;2024-01-25T12:55:30;36.75;;;8.40;;
25023;SDS011;13033;50.936;5.334;2024-01-25T12:57:56;41.03;;;9.50;;
25023;SDS011;13033;50.936;5.334;2024-01-25T13:00:23;36.38;;;8.25;;
25023;SDS011;13033;50.936;5.334;2024-01-25T13:02:50;41.58;;;8.70;;
25023;SDS011;13033;50.936;5.334;2024-01-25T13:05:17;43.00;;;9.60;;
25023;SDS011;13033;50.936;5.334;2024-01-25T13:07:44;46.38;;;8.05;;
25023;SDS011;13033;50.936;5.334;2024-01-25T13:10:09;47.50;;;8.55;;
25023;SDS011;13033;50.936;5.334;2024-01-25T13:12:41;35.30;;;6.85;;
25023;SDS011;13033;50.936;5.334;2024-01-25T13:15:07;36.53;;;8.07;;
25023;SDS011;13033;50.936;5.334;2024-01-25T13:17:36;39.03;;;7.45;;
25023;SDS011;13033;50.936;5.334;2024-01-25T13:20:03;37.85;;;7.32;;
25023;SDS011;13033;50.936;5.334;2024-01-25T13:22:31;34.20;;;7.72;;
25023;SDS011;13033;50.936;5.334;2024-01-25T13:24:58;45.35;;;7.88;;
25023;SDS011;13033;50.936;5.334;2024-01-25T13:27:25;35.55;;;8.70;;
25023;SDS011;13033;50.936;5.334;2024-01-25T13:29:51;30.77;;;7.68;;
25023;SDS011;13033;50.936;5.334;2024-01-25T13:32:17;38.80;;;7.90;;
25023;SDS011;13033;50.936;5.334;2024-01-25T13:34:43;34.60;;;8.02;;
25023;SDS011;13033;50.936;5.334;2024-01-25T13:37:10;31.38;;;6.65;;
25023;SDS011;13033;50.936;5.334;2024-01-25T13:39:36;39.70;;;7.20;;
25023;SDS011;13033;50.936;5.334;2024-01-25T13:42:02;36.20;;;6.93;;
25023;SDS011;13033;50.936;5.334;2024-01-25T13:44:28;34.20;;;6.70;;
25023;SDS011;13033;50.936;5.334;2024-01-25T13:46:55;39.60;;;7.35;;
25023;SDS011;13033;50.936;5.334;2024-01-25T13:49:24;36.22;;;7.47;;
25023;SDS011;13033;50.936;5.334;2024-01-25T13:51:50;34.50;;;6.72;;
25023;SDS011;13033;50.936;5.334;2024-01-25T13:54:15;30.58;;;8.15;;
25023;SDS011;13033;50.936;5.334;2024-01-25T13:56:42;29.27;;;6.75;;
25023;SDS011;13033;50.936;5.334;2024-01-25T13:59:07;28.77;;;8.10;;
25023;SDS011;13033;50.936;5.334;2024-01-25T14:01:33;28.00;;;7.07;;
25023;SDS011;13033;50.936;5.334;2024-01-25T14:03:59;26.33;;;6.68;;
25023;SDS011;13033;50.936;5.334;2024-01-25T14:06:25;31.10;;;6.65;;
25023;SDS011;13033;50.936;5.334;2024-01-25T14:08:51;37.10;;;6.03;;
25023;SDS011;13033;50.936;5.334;2024-01-25T14:11:18;20.25;;;5.50;;
25023;SDS011;13033;50.936;5.334;2024-01-25T14:13:44;23.23;;;5.75;;
25023;SDS011;13033;50.936;5.334;2024-01-25T14:16:10;20.65;;;6.53;;
25023;SDS011;13033;50.936;5.334;2024-01-25T14:18:41;24.98;;;5.68;;
25023;SDS011;13033;50.936;5.334;2024-01-25T14:21:07;22.80;;;5.70;;
25023;SDS011;13033;50.936;5.334;2024-01-25T14:23:33;24.15;;;5.75;;
25023;SDS011;13033;50.936;5.334;2024-01-25T14:25:59;18.27;;;5.32;;
25023;SDS011;13033;50.936;5.334;2024-01-25T14:28:25;20.08;;;5.40;;